Terminal Aerodrome Forecast
Issued by NWS Riverton, WY

Home | Current Version | Previous Version | Text Only | Print | Product List | Glossary On
Versions: 1 2 3 4 5 6 7 8 9 10 11 12 13 14 15 16 17
967
FTUS45 KRIW 051755 AAA
TAFRIW
TAF AMD
KRIW 051755Z 0518/0618 29018G26KT P6SM SCT030
     FM060200 29014G20KT P6SM SKC
     FM060500 30009KT P6SM SKC
     FM061600 VRB06KT P6SM SKC=

USA.gov is the U.S. government's official web portal to all federal, state and local government web resources and services.